Time;durP1;ratioP1;P1;durP2;ratioP2;P2;SDS_P1;SDS_P2;PMS_P1;PMS_P2;Temp;Humidity;BMP_temperature;BMP_pressure;BME280_temperature;BME280_humidity;BME280_pressure;Samples;Min_cycle;Max_cycle;Signal;HPM_P1;HPM_P2
2022/05/25 00:02:24;;;;;;;9.32;4.22;;;11.30;99.90;;;;;;5053364;28;20060;-73
2022/05/25 00:04:51;;;;;;;6.15;3.90;;;11.30;99.90;;;;;;5053314;28;20045;-73
2022/05/25 00:07:17;;;;;;;7.85;3.95;;;11.30;99.90;;;;;;5052324;28;20043;-73
2022/05/25 00:09:43;;;;;;;6.63;4.13;;;11.20;99.90;;;;;;5052425;28;20041;-73
2022/05/25 00:12:09;;;;;;;6.70;4.43;;;11.30;99.90;;;;;;5052264;28;20056;-72
2022/05/25 00:14:36;;;;;;;6.55;4.80;;;11.30;99.90;;;;;;5052464;28;20041;-72
2022/05/25 00:17:03;;;;;;;10.32;4.88;;;11.20;99.90;;;;;;5052476;28;20047;-72
2022/05/25 00:22:13;;;;;;;7.75;4.47;;;11.10;99.90;;;;;;5053072;28;20064;-72
2022/05/25 00:24:38;;;;;;;6.80;4.50;;;11.10;99.90;;;;;;5053255;28;20515;-73
2022/05/25 00:27:04;;;;;;;7.75;4.32;;;11.20;99.90;;;;;;5052091;28;20392;-73
2022/05/25 00:29:30;;;;;;;6.05;3.70;;;11.20;99.90;;;;;;5052105;28;20036;-72
2022/05/25 00:31:56;;;;;;;7.20;4.10;;;11.20;99.90;;;;;;5052029;28;20143;-72
2022/05/25 00:34:22;;;;;;;6.22;4.25;;;11.20;99.90;;;;;;5053072;28;20041;-72
2022/05/25 00:36:47;;;;;;;7.95;4.57;;;11.20;99.90;;;;;;5050656;28;20091;-72
2022/05/25 00:39:13;;;;;;;7.65;4.60;;;11.30;99.90;;;;;;5050449;28;20044;-72
2022/05/25 00:41:38;;;;;;;8.38;4.05;;;11.30;99.90;;;;;;5032913;28;20037;-72
2022/05/25 00:44:05;;;;;;;8.15;4.60;;;11.30;99.90;;;;;;5041789;28;20052;-72
2022/05/25 00:46:34;;;;;;;7.70;4.85;;;11.30;99.90;;;;;;5052280;28;20033;-72
2022/05/25 00:49:33;;;;;;;7.78;4.82;;;11.30;99.90;;;;;;5051490;28;20037;-72
2022/05/25 00:52:02;;;;;;;6.80;4.70;;;11.20;99.90;;;;;;5029563;28;20422;-72
2022/05/25 00:54:34;;;;;;;8.80;4.75;;;11.20;99.90;;;;;;5032998;28;20045;-72
2022/05/25 00:57:05;;;;;;;7.85;5.45;;;11.20;99.90;;;;;;5044859;28;20041;-72
2022/05/25 00:59:34;;;;;;;8.23;5.05;;;11.10;99.90;;;;;;5049688;28;20053;-72
2022/05/25 01:02:00;;;;;;;9.18;5.20;;;11.10;99.90;;;;;;5051472;28;20057;-71
2022/05/25 01:04:26;;;;;;;8.68;5.28;;;11.10;99.90;;;;;;5052091;28;20048;-72
2022/05/25 01:07:27;;;;;;;7.25;5.20;;;11.10;99.90;;;;;;5055598;28;20033;-72
2022/05/25 01:10:13;;;;;;;7.82;5.85;;;11.20;99.90;;;;;;5055246;28;20571;-73
2022/05/25 01:12:51;;;;;;;10.20;6.30;;;11.10;99.90;;;;;;5055073;28;20100;-72
2022/05/25 01:15:38;;;;;;;8.13;5.57;;;11.10;99.90;;;;;;5056284;28;20485;-72
2022/05/25 01:18:28;;;;;;;7.57;5.25;;;11.00;99.90;;;;;;5056233;28;20052;-72
2022/05/25 01:21:02;;;;;;;9.95;6.22;;;11.00;99.90;;;;;;5052827;28;20521;-72
2022/05/25 01:23:39;;;;;;;8.40;5.85;;;11.00;99.90;;;;;;5054958;28;20033;-72
2022/05/25 01:26:26;;;;;;;8.90;5.80;;;11.00;99.90;;;;;;5055341;28;20033;-71
2022/05/25 01:29:16;;;;;;;8.60;5.90;;;11.10;99.90;;;;;;5054149;28;20037;-71
2022/05/25 01:31:51;;;;;;;7.85;5.55;;;11.00;99.90;;;;;;5055184;28;20036;-71
2022/05/25 01:34:25;;;;;;;9.65;6.40;;;11.10;99.90;;;;;;5036001;28;20061;-71
2022/05/25 01:36:56;;;;;;;8.50;6.57;;;11.10;99.90;;;;;;5054321;28;20033;-72
2022/05/25 01:39:28;;;;;;;8.05;5.88;;;11.10;99.90;;;;;;5054529;28;20045;-71
2022/05/25 01:42:00;;;;;;;8.97;5.90;;;11.10;99.90;;;;;;5054652;28;20040;-71
2022/05/25 01:44:32;;;;;;;7.93;5.88;;;11.00;99.90;;;;;;5055982;28;20040;-71
2022/05/25 01:47:03;;;;;;;12.97;6.53;;;11.00;99.90;;;;;;5053831;28;20059;-72
2022/05/25 01:49:34;;;;;;;8.88;6.57;;;11.00;99.90;;;;;;5038126;28;20045;-72
2022/05/25 01:52:05;;;;;;;8.75;6.32;;;11.00;99.90;;;;;;5054826;28;20051;-71
2022/05/25 01:54:46;;;;;;;8.27;5.93;;;11.00;99.90;;;;;;5055882;28;20037;-72
2022/05/25 01:57:13;;;;;;;8.82;6.68;;;11.00;99.90;;;;;;5053801;28;20051;-72
2022/05/25 01:59:41;;;;;;;8.93;6.75;;;11.00;99.90;;;;;;5055445;28;20402;-71
2022/05/25 02:04:54;;;;;;;10.02;6.68;;;11.00;99.90;;;;;;5055566;28;20120;-71
2022/05/25 02:07:22;;;;;;;10.20;7.22;;;11.00;99.90;;;;;;5053198;28;20048;-72
2022/05/25 02:10:12;;;;;;;10.02;7.00;;;11.00;99.90;;;;;;5051343;28;20494;-72
2022/05/25 02:13:03;;;;;;;8.77;6.53;;;11.00;99.90;;;;;;5052696;28;20401;-72
2022/05/25 02:15:40;;;;;;;10.68;6.72;;;11.00;99.90;;;;;;5053754;28;20045;-72
2022/05/25 02:18:35;;;;;;;10.48;6.40;;;10.90;99.90;;;;;;5054809;28;20033;-72
2022/05/25 02:21:14;;;;;;;12.10;7.30;;;10.90;99.90;;;;;;5036424;28;20049;-72
2022/05/25 02:23:42;;;;;;;10.13;7.40;;;10.90;99.90;;;;;;5055184;28;20045;-71
2022/05/25 02:26:14;;;;;;;10.10;6.85;;;10.80;99.90;;;;;;5054212;28;20076;-71
2022/05/25 02:29:05;;;;;;;10.73;6.60;;;10.80;99.90;;;;;;5055056;28;20033;-71
2022/05/25 02:31:38;;;;;;;9.88;6.78;;;10.80;99.90;;;;;;5053063;28;20071;-71
2022/05/25 02:34:06;;;;;;;9.63;6.97;;;10.80;99.90;;;;;;5054083;28;20041;-71
2022/05/25 02:36:35;;;;;;;9.02;7.15;;;10.70;99.90;;;;;;5053498;28;20033;-71
2022/05/25 02:39:05;;;;;;;10.32;7.50;;;10.70;99.90;;;;;;5036767;28;20084;-71
2022/05/25 02:41:34;;;;;;;9.85;7.55;;;10.70;99.90;;;;;;5053956;28;20047;-71
2022/05/25 02:44:02;;;;;;;9.85;6.90;;;10.70;99.90;;;;;;5053434;28;20041;-71
2022/05/25 02:46:28;;;;;;;12.00;7.90;;;10.60;99.90;;;;;;5052681;28;20052;-71
2022/05/25 02:48:54;;;;;;;10.77;7.53;;;10.60;99.90;;;;;;5054718;28;20044;-71
2022/05/25 02:51:20;;;;;;;10.73;7.25;;;10.60;99.90;;;;;;5054578;28;20045;-71
2022/05/25 02:53:46;;;;;;;15.00;9.43;;;10.50;99.90;;;;;;5054615;28;20035;-71
2022/05/25 02:56:11;;;;;;;12.80;7.65;;;10.50;99.90;;;;;;5053663;28;20083;-71
2022/05/25 02:58:37;;;;;;;10.82;7.63;;;10.40;99.90;;;;;;5054263;28;20393;-71
2022/05/25 03:01:03;;;;;;;9.77;7.35;;;10.40;99.90;;;;;;5049783;28;20120;-71
2022/05/25 03:03:32;;;;;;;12.38;8.00;;;10.40;99.90;;;;;;5054522;28;20045;-71
2022/05/25 03:05:58;;;;;;;10.77;7.90;;;10.40;99.90;;;;;;5053431;28;20029;-71
2022/05/25 03:08:23;;;;;;;10.50;7.45;;;10.40;99.90;;;;;;5053349;28;20386;-71
2022/05/25 03:10:49;;;;;;;10.80;8.00;;;10.40;99.90;;;;;;5052759;28;20442;-71
2022/05/25 03:13:14;;;;;;;10.70;8.05;;;10.50;99.90;;;;;;5050630;28;20037;-71
2022/05/25 03:15:40;;;;;;;11.07;8.35;;;10.50;99.90;;;;;;5054197;28;20037;-71
2022/05/25 03:18:06;;;;;;;11.45;7.85;;;10.60;99.90;;;;;;5037301;28;20106;-72
2022/05/25 03:20:31;;;;;;;10.88;8.68;;;10.60;99.90;;;;;;5035933;28;20049;-72
2022/05/25 03:22:57;;;;;;;12.25;8.82;;;10.60;99.90;;;;;;5053822;28;20458;-71
2022/05/25 03:25:23;;;;;;;13.02;9.10;;;10.70;99.90;;;;;;5052819;28;20037;-71
2022/05/25 03:27:49;;;;;;;12.77;8.60;;;10.70;99.90;;;;;;5035078;28;20034;-71
2022/05/25 03:30:17;;;;;;;14.45;9.82;;;10.70;99.90;;;;;;5039782;28;20044;-71
2022/05/25 03:32:42;;;;;;;12.90;8.77;;;10.70;99.90;;;;;;5053904;28;20040;-71
2022/05/25 03:35:09;;;;;;;12.65;8.43;;;10.70;99.90;;;;;;5052724;28;20036;-71
2022/05/25 03:37:36;;;;;;;12.90;9.85;;;10.70;99.90;;;;;;5053781;28;20548;-71
2022/05/25 03:40:03;;;;;;;13.45;9.45;;;10.70;99.90;;;;;;5052086;28;20126;-71
2022/05/25 03:42:29;;;;;;;13.13;9.45;;;10.70;99.90;;;;;;5051733;28;20044;-71
2022/05/25 03:44:54;;;;;;;13.50;9.05;;;10.70;99.90;;;;;;5053526;28;20481;-71
2022/05/25 03:47:20;;;;;;;12.80;8.88;;;10.60;99.90;;;;;;5041750;28;20086;-71
2022/05/25 03:49:46;;;;;;;12.20;9.30;;;10.70;99.90;;;;;;5027192;28;20053;-71
2022/05/25 03:52:12;;;;;;;12.38;9.35;;;10.70;99.90;;;;;;5025568;28;20126;-71
2022/05/25 03:54:37;;;;;;;12.63;9.30;;;10.70;99.90;;;;;;5026375;28;20108;-71
2022/05/25 03:57:06;;;;;;;12.18;8.98;;;10.70;99.90;;;;;;5025280;28;20049;-71
2022/05/25 03:59:32;;;;;;;12.77;9.57;;;10.70;99.90;;;;;;5026350;28;20052;-72
2022/05/25 04:01:57;;;;;;;13.00;9.50;;;10.70;99.90;;;;;;5024845;28;20053;-71
2022/05/25 04:04:23;;;;;;;12.32;9.10;;;10.70;99.90;;;;;;5024472;28;20056;-71
2022/05/25 04:06:48;;;;;;;12.77;8.63;;;10.80;99.90;;;;;;5011110;28;20131;-71
2022/05/25 04:09:14;;;;;;;13.57;9.57;;;10.80;99.90;;;;;;5025029;28;20131;-71
2022/05/25 04:11:42;;;;;;;12.85;8.98;;;10.80;99.90;;;;;;5024748;28;20045;-72
2022/05/25 04:14:08;;;;;;;14.30;9.13;;;10.80;99.90;;;;;;5045608;28;20048;-72
2022/05/25 04:16:34;;;;;;;12.50;9.20;;;10.80;99.90;;;;;;5041520;28;20072;-71
2022/05/25 04:18:59;;;;;;;12.52;8.55;;;10.80;99.90;;;;;;5051849;28;20045;-71
2022/05/25 04:21:25;;;;;;;12.43;8.82;;;10.90;99.90;;;;;;5050939;28;20041;-71
2022/05/25 04:23:51;;;;;;;13.98;9.25;;;10.80;99.90;;;;;;5035897;28;21452;-72
2022/05/25 04:26:16;;;;;;;11.90;8.68;;;10.80;99.90;;;;;;5028934;28;20037;-71
2022/05/25 04:28:42;;;;;;;14.10;9.57;;;10.90;99.90;;;;;;5027063;28;20056;-71
2022/05/25 04:31:08;;;;;;;11.75;9.00;;;10.90;99.90;;;;;;5023909;28;20042;-71
2022/05/25 04:33:35;;;;;;;12.05;8.93;;;10.90;99.90;;;;;;5026201;28;20041;-72
2022/05/25 04:36:01;;;;;;;14.27;9.23;;;10.90;99.90;;;;;;5026315;28;20080;-71
2022/05/25 04:38:26;;;;;;;12.10;9.93;;;11.00;99.90;;;;;;5035767;28;21047;-72
2022/05/25 04:40:52;;;;;;;13.38;9.80;;;11.10;99.90;;;;;;5028068;28;20523;-72
2022/05/25 04:43:20;;;;;;;13.63;11.25;;;11.10;99.90;;;;;;5017793;28;20037;-72
2022/05/25 04:45:48;;;;;;;15.38;9.70;;;11.10;99.90;;;;;;5053368;28;20512;-71
2022/05/25 04:48:14;;;;;;;13.63;9.43;;;11.20;99.90;;;;;;5046018;28;20034;-71
2022/05/25 04:50:42;;;;;;;15.85;9.38;;;11.20;99.90;;;;;;5028122;28;20602;-72
2022/05/25 04:53:10;;;;;;;12.73;8.80;;;11.20;99.90;;;;;;5030134;28;20041;-71
2022/05/25 04:58:31;;;;;;;15.45;9.63;;;11.30;99.90;;;;;;5030031;28;20041;-72
2022/05/25 05:00:56;;;;;;;13.68;9.45;;;11.30;99.90;;;;;;5028916;28;20075;-71
2022/05/25 05:03:23;;;;;;;13.77;9.43;;;11.30;99.90;;;;;;5029511;28;20053;-71
2022/05/25 05:05:50;;;;;;;12.07;8.93;;;11.30;99.90;;;;;;5027307;28;20047;-71
2022/05/25 05:08:16;;;;;;;12.07;9.13;;;11.30;99.90;;;;;;5028699;28;20481;-71
2022/05/25 05:10:42;;;;;;;12.10;9.18;;;11.40;99.90;;;;;;5028022;28;20061;-72
2022/05/25 05:13:08;;;;;;;12.88;9.32;;;11.40;99.90;;;;;;5033283;28;20060;-71
2022/05/25 05:15:36;;;;;;;14.30;9.70;;;11.50;99.90;;;;;;5027614;28;20056;-72
2022/05/25 05:18:02;;;;;;;14.23;9.90;;;11.50;99.90;;;;;;5054733;28;20037;-71
2022/05/25 05:20:29;;;;;;;13.30;8.80;;;11.60;99.90;;;;;;5049689;28;20070;-71
2022/05/25 05:22:54;;;;;;;13.70;9.32;;;11.60;99.90;;;;;;5028528;28;20513;-71
2022/05/25 05:25:20;;;;;;;13.73;9.70;;;11.70;99.90;;;;;;5018124;28;20152;-71
2022/05/25 05:27:46;;;;;;;12.13;8.95;;;11.70;99.90;;;;;;5030804;28;20033;-72
2022/05/25 05:30:15;;;;;;;13.30;9.07;;;11.80;99.90;;;;;;5028449;28;20655;-72
2022/05/25 05:32:41;;;;;;;12.07;8.48;;;11.80;99.90;;;;;;5027632;28;20041;-72
2022/05/25 05:35:07;;;;;;;10.85;8.40;;;11.90;99.90;;;;;;5028307;28;20661;-71
2022/05/25 05:37:37;;;;;;;12.38;8.93;;;12.10;99.90;;;;;;5028310;28;20044;-71
2022/05/25 05:40:06;;;;;;;12.27;8.80;;;12.10;99.90;;;;;;5029564;28;20745;-72
2022/05/25 05:42:33;;;;;;;11.50;8.88;;;12.20;99.90;;;;;;5028620;28;20037;-71
2022/05/25 05:45:04;;;;;;;11.93;8.98;;;12.30;99.90;;;;;;5030765;28;20043;-71
2022/05/25 05:47:35;;;;;;;15.02;8.98;;;12.30;99.90;;;;;;5032336;28;20052;-72
2022/05/25 05:50:03;;;;;;;15.60;9.37;;;12.40;99.90;;;;;;5024644;28;20448;-72
2022/05/25 05:52:28;;;;;;;14.82;8.80;;;12.40;99.90;;;;;;5028361;28;20069;-71
2022/05/25 05:54:54;;;;;;;14.77;9.95;;;12.50;99.90;;;;;;5025731;28;20131;-72
2022/05/25 05:57:20;;;;;;;16.30;10.13;;;12.60;99.90;;;;;;5027161;28;20052;-71
2022/05/25 05:59:46;;;;;;;13.30;9.75;;;12.70;99.90;;;;;;5029268;28;20955;-71
2022/05/25 06:02:11;;;;;;;14.02;8.95;;;12.80;99.90;;;;;;5027309;28;20092;-72
2022/05/25 06:04:37;;;;;;;13.90;9.65;;;12.90;99.90;;;;;;5028443;28;20048;-71
2022/05/25 06:07:03;;;;;;;14.82;9.57;;;13.00;99.90;;;;;;5030457;28;20044;-72
2022/05/25 06:09:29;;;;;;;14.65;10.68;;;13.10;99.90;;;;;;5034779;28;20056;-73
2022/05/25 06:11:55;;;;;;;14.05;9.63;;;13.20;99.90;;;;;;5038850;28;20029;-72
2022/05/25 06:14:20;;;;;;;17.00;10.10;;;13.30;99.90;;;;;;5049460;28;20128;-72
2022/05/25 06:19:33;;;;;;;14.50;10.63;;;13.50;99.90;;;;;;5053420;28;20042;-72
2022/05/25 06:22:07;;;;;;;12.88;9.52;;;13.60;99.90;;;;;;5042266;28;20037;-73
2022/05/25 06:24:42;;;;;;;14.30;9.10;;;13.70;99.90;;;;;;5035074;28;20091;-73
2022/05/25 06:27:11;;;;;;;14.15;9.68;;;13.80;99.90;;;;;;5047735;28;20044;-73
2022/05/25 06:29:39;;;;;;;13.77;9.02;;;13.80;99.90;;;;;;5044146;28;20044;-73
2022/05/25 06:32:06;;;;;;;13.90;9.20;;;13.90;99.90;;;;;;5043976;28;20401;-74
2022/05/25 06:34:32;;;;;;;12.50;8.95;;;13.90;99.90;;;;;;5037800;28;20056;-73
2022/05/25 06:36:58;;;;;;;17.05;10.23;;;14.00;99.90;;;;;;5035881;28;20490;-73
2022/05/25 06:39:24;;;;;;;12.23;7.78;;;14.10;99.90;;;;;;5051614;28;20048;-73
2022/05/25 06:41:49;;;;;;;12.30;8.07;;;14.10;99.90;;;;;;5053253;28;20032;-73
2022/05/25 06:44:17;;;;;;;14.25;7.57;;;14.10;99.90;;;;;;5052395;28;20037;-73
2022/05/25 06:46:43;;;;;;;12.60;8.00;;;14.30;99.90;;;;;;5048690;28;20056;-73
2022/05/25 06:49:08;;;;;;;13.93;7.57;;;14.30;99.90;;;;;;5049884;28;20037;-74
2022/05/25 06:51:35;;;;;;;13.00;8.07;;;14.30;99.90;;;;;;5052591;28;20037;-74
2022/05/25 06:54:01;;;;;;;14.20;8.35;;;14.30;99.90;;;;;;5052124;28;20044;-73
2022/05/25 06:56:28;;;;;;;13.30;7.38;;;14.40;99.90;;;;;;5050514;28;20040;-73
2022/05/25 06:58:55;;;;;;;13.75;8.07;;;14.50;99.90;;;;;;5052940;28;20053;-73
2022/05/25 07:01:22;;;;;;;12.10;7.78;;;14.60;99.90;;;;;;5049786;28;20057;-73
2022/05/25 07:03:48;;;;;;;11.93;7.65;;;14.70;99.90;;;;;;5052282;28;20492;-73
2022/05/25 07:06:17;;;;;;;13.27;7.68;;;14.60;99.90;;;;;;5046314;28;20098;-74
2022/05/25 07:08:43;;;;;;;13.70;7.55;;;14.70;99.90;;;;;;5046452;28;20034;-74
2022/05/25 07:11:11;;;;;;;11.20;6.60;;;14.70;99.90;;;;;;5050299;28;20051;-74
2022/05/25 07:13:37;;;;;;;10.82;6.90;;;14.80;99.90;;;;;;5052547;28;20052;-74
2022/05/25 07:16:06;;;;;;;11.82;7.45;;;14.90;99.90;;;;;;5043408;28;20028;-74
2022/05/25 07:18:32;;;;;;;11.38;6.63;;;15.00;99.90;;;;;;5053867;28;20028;-74
2022/05/25 07:21:06;;;;;;;17.05;7.97;;;15.10;99.90;;;;;;5048902;28;20124;-74
2022/05/25 07:23:36;;;;;;;10.32;6.50;;;15.10;99.90;;;;;;5052624;28;20045;-74
2022/05/25 07:26:02;;;;;;;12.85;6.93;;;15.20;99.90;;;;;;5050692;28;20040;-74
2022/05/25 07:28:28;;;;;;;9.93;6.32;;;15.20;99.90;;;;;;5051497;28;20075;-74
2022/05/25 07:31:01;;;;;;;10.60;7.07;;;15.20;99.90;;;;;;5051504;28;20087;-69
2022/05/25 07:33:27;;;;;;;12.13;6.80;;;15.20;99.90;;;;;;5052284;28;20059;-69
2022/05/25 07:35:53;;;;;;;13.00;7.20;;;15.20;99.90;;;;;;5048308;28;20254;-69
2022/05/25 07:38:18;;;;;;;11.90;6.60;;;15.20;99.90;;;;;;5050907;28;20602;-74
2022/05/25 07:40:45;;;;;;;12.48;6.88;;;15.30;99.90;;;;;;5050143;28;20041;-74
2022/05/25 07:43:18;;;;;;;11.57;6.75;;;15.20;99.90;;;;;;5053487;28;20162;-74
2022/05/25 07:45:46;;;;;;;11.93;6.90;;;15.40;99.90;;;;;;5049909;28;20075;-74
2022/05/25 07:48:12;;;;;;;9.20;6.22;;;15.50;99.90;;;;;;5052493;28;20118;-74
2022/05/25 07:50:39;;;;;;;9.40;6.20;;;15.50;99.90;;;;;;5050847;28;20135;-74
2022/05/25 07:53:55;;;;;;;14.32;5.93;;;15.60;99.90;;;;;;5051260;28;21011;-74
2022/05/25 07:55:53;;;;;;;9.90;5.30;;;15.50;99.90;;;;;;5051630;28;20587;-74
2022/05/25 07:58:19;;;;;;;9.20;5.30;;;15.60;99.90;;;;;;5050877;28;20053;-74
2022/05/25 08:00:45;;;;;;;8.82;5.47;;;15.60;99.90;;;;;;5047609;28;20504;-74
2022/05/25 08:05:59;;;;;;;9.20;5.13;;;15.90;99.90;;;;;;5044715;28;20048;-74
2022/05/25 08:08:25;;;;;;;10.88;5.38;;;15.90;99.90;;;;;;5053305;28;20122;-74
2022/05/25 08:10:57;;;;;;;9.13;5.22;;;15.80;99.90;;;;;;5049058;28;20040;-74
2022/05/25 08:13:24;;;;;;;9.05;4.93;;;16.00;99.90;;;;;;5051406;28;20097;-74
2022/05/25 08:15:50;;;;;;;11.52;4.93;;;16.10;99.90;;;;;;5048764;28;20539;-74
2022/05/25 08:18:17;;;;;;;8.50;4.10;;;16.10;99.90;;;;;;5051956;28;20057;-74
2022/05/25 08:20:43;;;;;;;7.35;4.07;;;16.10;99.90;;;;;;5048316;28;20499;-74
2022/05/25 08:23:11;;;;;;;7.88;4.70;;;16.20;99.90;;;;;;5050842;28;20041;-74
2022/05/25 08:25:37;;;;;;;9.88;4.22;;;16.20;99.90;;;;;;5050271;28;20043;-74
2022/05/25 08:28:04;;;;;;;6.00;3.38;;;16.40;99.90;;;;;;5032472;28;20056;-74
2022/05/25 08:30:30;;;;;;;6.60;3.55;;;16.40;99.90;;;;;;5053456;28;20485;-74
2022/05/25 08:32:56;;;;;;;8.25;3.58;;;16.60;99.90;;;;;;5047979;28;20050;-74
2022/05/25 08:35:22;;;;;;;8.48;3.95;;;16.70;99.90;;;;;;5048422;28;20048;-74
2022/05/25 08:37:47;;;;;;;6.57;3.67;;;16.80;99.90;;;;;;5047697;28;20112;-74
2022/05/25 08:40:20;;;;;;;7.35;3.00;;;16.90;99.90;;;;;;5046346;28;20044;-74
2022/05/25 08:42:53;;;;;;;7.38;3.13;;;16.80;99.90;;;;;;5052463;28;20436;-74
2022/05/25 08:45:22;;;;;;;5.00;2.60;;;16.80;99.90;;;;;;5052088;28;20428;-74
2022/05/25 08:47:52;;;;;;;8.27;3.33;;;16.80;99.90;;;;;;5051269;28;20124;-74
2022/05/25 08:50:18;;;;;;;7.40;3.05;;;16.80;99.90;;;;;;5051157;28;20045;-73
2022/05/25 08:52:46;;;;;;;7.45;3.60;;;17.00;99.90;;;;;;5042675;28;20049;-75
2022/05/25 08:55:26;;;;;;;6.43;3.33;;;17.00;99.90;;;;;;5051589;28;20071;-75
2022/05/25 08:57:56;;;;;;;5.63;3.60;;;16.90;99.90;;;;;;5049523;28;20728;-74
2022/05/25 09:00:23;;;;;;;8.35;3.70;;;17.00;99.90;;;;;;5052419;28;20052;-75
2022/05/25 09:03:11;;;;;;;7.88;3.97;;;17.00;99.90;;;;;;5051558;28;20509;-75
2022/05/25 09:05:48;;;;;;;6.78;3.83;;;16.90;99.90;;;;;;5032391;28;20037;-74
2022/05/25 09:08:34;;;;;;;6.28;3.70;;;17.00;99.90;;;;;;5040920;28;20370;-75
2022/05/25 09:11:09;;;;;;;8.07;3.45;;;16.90;99.90;;;;;;5050785;28;20076;-75
2022/05/25 09:13:40;;;;;;;7.38;3.50;;;16.90;99.90;;;;;;5051631;28;20056;-75
2022/05/25 09:16:17;;;;;;;6.18;3.10;;;16.80;99.90;;;;;;5050909;28;20036;-74
2022/05/25 09:19:12;;;;;;;6.55;3.38;;;16.80;99.90;;;;;;5050524;28;20072;-75
2022/05/25 09:21:46;;;;;;;6.28;3.40;;;16.70;99.90;;;;;;5051969;28;20071;-75
2022/05/25 09:24:16;;;;;;;7.13;3.33;;;16.60;99.90;;;;;;5049171;28;20041;-75
2022/05/25 09:26:42;;;;;;;6.05;3.20;;;16.70;99.90;;;;;;5049398;28;20033;-68
2022/05/25 09:29:09;;;;;;;5.05;2.83;;;16.80;99.90;;;;;;5054759;28;20500;-69
2022/05/25 09:31:44;;;;;;;5.40;2.53;;;16.90;99.90;;;;;;5054380;28;20029;-75
2022/05/25 09:34:16;;;;;;;5.68;2.50;;;17.00;99.90;;;;;;5054256;28;20033;-75
2022/05/25 09:36:45;;;;;;;;;;;17.10;99.90;;;;;;5055960;28;20075;-75
2022/05/25 09:39:42;;;;;;;4.75;2.42;;;17.10;99.90;;;;;;5052592;28;19916;-75
2022/05/25 09:42:13;;;;;;;4.70;2.53;;;17.30;99.90;;;;;;5042740;28;20493;-75
2022/05/25 09:44:39;;;;;;;5.43;2.37;;;17.30;99.90;;;;;;5055382;28;20108;-75
2022/05/25 09:47:07;;;;;;;4.63;2.63;;;17.30;99.90;;;;;;5041959;28;20088;-75
2022/05/25 09:49:44;;;;;;;7.30;3.28;;;17.20;99.90;;;;;;5035318;28;20044;-75
2022/05/25 09:52:27;;;;;;;4.80;2.35;;;17.00;99.90;;;;;;5053346;28;20067;-75
2022/05/25 09:55:22;;;;;;;6.07;2.60;;;17.10;99.90;;;;;;5054328;28;20539;-75
2022/05/25 09:58:02;;;;;;;6.97;2.78;;;17.10;99.90;;;;;;5052933;28;20390;-75
2022/05/25 10:00:37;;;;;;;7.60;2.75;;;17.10;99.90;;;;;;5052719;28;20402;-75
2022/05/25 10:03:06;;;;;;;4.78;2.75;;;17.20;99.90;;;;;;5049790;28;20048;-75
2022/05/25 10:05:45;;;;;;;5.47;2.80;;;17.30;99.90;;;;;;5049398;28;20432;-75
2022/05/25 10:08:20;;;;;;;6.15;2.95;;;17.40;99.90;;;;;;5053181;28;20036;-75
2022/05/25 10:10:55;;;;;;;7.97;4.45;;;17.70;99.90;;;;;;5052329;28;20119;-74
2022/05/25 10:13:25;;;;;;;6.22;2.75;;;17.60;99.90;;;;;;5052795;28;20049;-75
2022/05/25 10:15:51;;;;;;;5.50;2.95;;;17.60;99.90;;;;;;5054605;28;20073;-75
2022/05/25 10:18:36;;;;;;;5.68;2.83;;;17.50;99.90;;;;;;5051978;28;20087;-75
2022/05/25 10:21:04;;;;;;;4.60;2.45;;;17.40;99.90;;;;;;5054262;28;20037;-75
2022/05/25 10:23:30;;;;;;;5.63;2.97;;;17.50;99.90;;;;;;5053422;28;20107;-75
2022/05/25 10:26:19;;;;;;;6.43;2.90;;;17.50;99.90;;;;;;5054355;28;20045;-75
2022/05/25 10:28:57;;;;;;;7.15;3.38;;;17.40;99.90;;;;;;5054238;28;20044;-75
2022/05/25 10:36:58;;;;;;;6.78;3.38;;;17.30;99.90;;;;;;5051601;28;20080;-75
2022/05/25 10:39:24;;;;;;;4.57;2.95;;;17.50;99.90;;;;;;5051774;28;20044;-75
2022/05/25 10:42:26;;;;;;;7.82;3.13;;;17.60;99.90;;;;;;5050337;28;20056;-75
2022/05/25 10:45:10;;;;;;;11.30;3.53;;;17.60;99.90;;;;;;5046934;28;20490;-75
2022/05/25 10:47:57;;;;;;;5.85;2.80;;;17.60;99.90;;;;;;5052527;28;20056;-75
2022/05/25 10:50:48;;;;;;;6.32;3.30;;;17.50;99.90;;;;;;5051360;28;20045;-75
2022/05/25 10:53:24;;;;;;;5.13;2.60;;;17.50;99.90;;;;;;5031170;28;20087;-75
2022/05/25 10:56:17;;;;;;;4.63;2.25;;;17.40;99.90;;;;;;5054096;28;20041;-75
2022/05/25 10:58:49;;;;;;;5.22;2.65;;;17.40;99.90;;;;;;5054181;28;20450;-75
2022/05/25 11:01:43;;;;;;;8.73;3.10;;;17.50;99.90;;;;;;5052000;28;20088;-75
2022/05/25 11:04:24;;;;;;;4.85;3.05;;;17.40;99.90;;;;;;5046894;28;20076;-75
2022/05/25 11:07:21;;;;;;;6.45;2.80;;;17.60;99.90;;;;;;5053672;28;20051;-75
2022/05/25 11:09:55;;;;;;;7.55;3.20;;;17.50;99.90;;;;;;5050557;28;20048;-74
2022/05/25 11:12:42;;;;;;;7.28;3.08;;;17.50;99.90;;;;;;5051511;28;20041;-74
2022/05/25 11:15:38;;;;;;;7.05;3.40;;;17.40;99.90;;;;;;5053625;28;20402;-75
2022/05/25 11:18:31;;;;;;;6.78;3.10;;;17.40;99.90;;;;;;5043502;28;20428;-74
2022/05/25 11:21:02;;;;;;;4.97;2.33;;;17.50;99.90;;;;;;5016330;28;20051;-74
2022/05/25 11:24:05;;;;;;;5.27;2.23;;;17.70;99.90;;;;;;5036278;28;20508;-74
2022/05/25 11:26:54;;;;;;;6.22;2.30;;;17.60;99.90;;;;;;5049938;28;20286;-75
2022/05/25 11:29:27;;;;;;;5.75;2.40;;;17.80;99.90;;;;;;5052899;28;20040;-75
2022/05/25 11:32:23;;;;;;;8.23;3.28;;;17.80;99.90;;;;;;5052787;28;20515;-75
2022/05/25 11:35:11;;;;;;;7.25;3.28;;;17.70;99.90;;;;;;5053374;28;20052;-75
2022/05/25 11:37:59;;;;;;;6.75;3.92;;;17.80;99.90;;;;;;5040347;28;20485;-75
2022/05/25 11:41:00;;;;;;;8.27;3.92;;;17.90;99.90;;;;;;5049536;28;20512;-75
2022/05/25 11:44:00;;;;;;;6.75;3.60;;;18.00;99.90;;;;;;4993370;28;20048;-75
2022/05/25 11:46:29;;;;;;;6.97;3.50;;;18.00;99.90;;;;;;5050456;28;20048;-75
2022/05/25 11:49:19;;;;;;;7.78;4.30;;;17.90;99.90;;;;;;5052055;28;20492;-75
2022/05/25 11:52:14;;;;;;;9.35;4.10;;;17.70;99.90;;;;;;5021982;28;20044;-75
2022/05/25 11:55:11;;;;;;;7.72;4.25;;;17.60;99.90;;;;;;5050959;28;20041;-75
2022/05/25 11:57:43;;;;;;;7.30;3.35;;;17.30;99.90;;;;;;5035073;28;20079;-75
2022/05/25 12:00:31;;;;;;;10.63;5.53;;;17.30;99.90;;;;;;5051800;28;20460;-75
2022/05/25 12:03:14;;;;;;;7.63;4.10;;;16.80;99.90;;;;;;5048310;28;20048;-75
2022/05/25 12:06:14;;;;;;;8.48;4.60;;;16.00;99.90;;;;;;5052559;28;20068;-74
2022/05/25 12:09:04;;;;;;;5.82;3.00;;;15.80;99.90;;;;;;5047128;28;20045;-74
2022/05/25 12:11:50;;;;;;;5.97;3.45;;;15.90;99.90;;;;;;5049458;28;20477;-74
2022/05/25 12:14:23;;;;;;;7.13;3.88;;;15.80;99.90;;;;;;5042962;28;20032;-75
2022/05/25 12:16:52;;;;;;;8.10;4.40;;;15.80;99.90;;;;;;5052570;28;20396;-74
2022/05/25 12:19:25;;;;;;;6.85;4.40;;;15.80;99.90;;;;;;5040888;28;20041;-74
2022/05/25 12:22:04;;;;;;;6.35;3.50;;;15.80;99.90;;;;;;5016781;28;20091;-75
2022/05/25 12:24:34;;;;;;;7.25;3.65;;;15.80;99.90;;;;;;5050908;28;20033;-74
2022/05/25 12:27:04;;;;;;;6.70;3.22;;;15.90;99.90;;;;;;5050167;28;20044;-74
2022/05/25 12:29:40;;;;;;;8.65;3.15;;;16.00;99.90;;;;;;5049294;28;20041;-74
2022/05/25 12:32:08;;;;;;;5.85;2.97;;;16.10;99.90;;;;;;5049959;28;20041;-74
2022/05/25 12:34:37;;;;;;;7.85;3.90;;;16.20;99.90;;;;;;5048035;28;20110;-74
2022/05/25 12:37:04;;;;;;;8.48;4.20;;;16.20;99.90;;;;;;5049965;28;20131;-74
2022/05/25 12:39:42;;;;;;;9.25;4.50;;;16.40;99.90;;;;;;5051260;28;20051;-74
2022/05/25 12:42:23;;;;;;;7.20;4.07;;;16.50;99.90;;;;;;5050076;28;20037;-74
2022/05/25 12:50:43;;;;;;;6.10;3.22;;;16.60;99.90;;;;;;5046398;28;20486;-74
2022/05/25 12:53:30;;;;;;;8.80;3.80;;;16.90;99.90;;;;;;5042982;28;20045;-74
2022/05/25 12:56:18;;;;;;;7.75;3.42;;;17.00;99.90;;;;;;5052204;28;20049;-75
2022/05/25 12:58:50;;;;;;;9.13;3.47;;;17.10;99.90;;;;;;5044262;28;20429;-75
2022/05/25 13:01:22;;;;;;;8.25;2.92;;;16.90;99.90;;;;;;5051962;28;20053;-74
2022/05/25 13:03:47;;;;;;;5.32;2.08;;;17.00;99.90;;;;;;5050654;28;20072;-75
2022/05/25 13:06:17;;;;;;;4.35;1.75;;;17.10;99.90;;;;;;5047289;28;20088;-74
2022/05/25 13:08:45;;;;;;;6.05;1.75;;;17.10;99.90;;;;;;5040461;28;20031;-75
2022/05/25 13:11:28;;;;;;;4.03;1.38;;;17.10;99.90;;;;;;5056339;28;20041;-75
2022/05/25 13:13:54;;;;;;;8.50;1.52;;;16.90;99.90;;;;;;5054972;28;20052;-75
2022/05/25 13:16:41;;;;;;;5.60;1.33;;;17.00;99.90;;;;;;5053236;28;20427;-74
2022/05/25 13:19:32;;;;;;;5.97;1.50;;;16.90;99.90;;;;;;5053174;28;20048;-75
2022/05/25 13:22:02;;;;;;;6.78;1.27;;;17.00;99.90;;;;;;5039173;28;20091;-74
2022/05/25 13:24:56;;;;;;;8.40;1.80;;;17.10;99.90;;;;;;5054887;28;20047;-74
2022/05/25 13:27:29;;;;;;;7.07;1.45;;;17.10;99.90;;;;;;5054259;28;20040;-70
2022/05/25 13:30:13;;;;;;;4.85;1.20;;;17.10;99.90;;;;;;5052261;28;20511;-70
2022/05/25 13:32:50;;;;;;;5.45;1.10;;;17.10;99.90;;;;;;5036685;28;20044;-70
2022/05/25 13:35:19;;;;;;;4.10;1.10;;;17.10;99.90;;;;;;5053559;28;20064;-75